18 | 05 | 2024

Daten Vortag

Klimadaten von 10m Höhe gemessen, Station  

Datum / Zeit Intervall min Luftfeuchte % Temperatur °C absolut Luftdruck hPa Wind m/s Windbö m/s Richtung Relative Luftdruck hPa Taupunkt °C Windchill °C Niederschlag mm
17-05-2024 00:10 5 51 17.5 1009.1 9.7 18.4 SEE 1013.4 7.3 15.8 0.0
17-05-2024 00:10 5 50 17.6 1009.3 12.2 24.5 E 1013.6 7.1 15.1 0.0
17-05-2024 00:16 5 49 17.7 1009.2 11.2 17.3 SE 1013.5 6.9 15.5 0.0
17-05-2024 00:21 5 50 17.6 1009.2 7.2 14.8 E 1013.5 7.1 16.8 0.0
17-05-2024 00:26 5 50 17.4 1009.0 6.1 13.3 SEE 1013.3 6.9 17.4 0.0
17-05-2024 00:31 5 50 17.4 1009.4 7.2 14.8 NEE 1013.7 6.9 16.6 0.0
17-05-2024 00:36 5 49 17.4 1009.4 7.2 11.2 SSE 1013.7 6.6 16.6 0.0
17-05-2024 00:41 5 49 17.2 1009.2 7.2 11.2 E 1013.5 6.4 16.4 0.0
17-05-2024 00:46 5 50 17.1 1009.1 5.0 9.7 E 1013.4 6.6 17.1 0.0
17-05-2024 00:51 5 50 17.0 1009.2 5.0 7.2 SEE 1013.5 6.5 17.0 0.0
17-05-2024 00:56 5 50 16.9 1009.2 7.2 11.2 SE 1013.5 6.4 16.1 0.0
17-05-2024 01:01 5 49 17.1 1009.3 9.7 18.4 NNE 1013.6 6.3 15.3 0.0
17-05-2024 01:06 5 50 17.0 1009.1 5.0 11.2 SEE 1013.4 6.5 17.0 0.0
17-05-2024 01:11 5 49 17.0 1009.4 5.0 9.7 SEE 1013.7 6.2 17.0 0.0
17-05-2024 01:16 5 50 16.8 1009.2 5.0 9.7 SEE 1013.5 6.3 16.8 0.0
17-05-2024 01:21 5 49 16.7 1009.2 5.0 13.3 SE 1013.5 6.0 16.7 0.0
17-05-2024 01:26 5 51 16.6 1009.5 2.5 6.1 E 1013.8 6.4 16.6 0.0
17-05-2024 01:31 5 51 16.5 1009.3 5.0 9.7 SE 1013.6 6.4 16.5 0.0
17-05-2024 01:36 5 51 16.5 1009.4 3.6 7.2 SEE 1013.7 6.4 16.5 0.0
17-05-2024 01:41 5 50 16.3 1009.4 6.1 9.7 E 1013.7 5.9 16.3 0.0
17-05-2024 01:46 5 50 16.4 1009.2 3.6 9.7 SE 1013.5 6.0 16.4 0.0
17-05-2024 01:51 5 51 16.5 1009.4 3.6 9.7 NEE 1013.7 6.4 16.5 0.0
17-05-2024 01:56 5 51 16.3 1009.4 5.0 9.7 SEE 1013.7 6.2 16.3 0.0
17-05-2024 02:01 5 51 16.2 1009.5 7.2 11.2 SEE 1013.8 6.1 15.4 0.0
17-05-2024 02:06 5 51 16.2 1009.3 7.2 11.2 SEE 1013.6 6.1 15.4 0.0
17-05-2024 02:11 5 52 15.9 1009.5 5.0 14.8 E 1013.8 6.1 15.9 0.0
17-05-2024 02:16 5 52 15.9 1009.4 3.6 7.2 SEE 1013.7 6.1 15.9 0.0
17-05-2024 02:21 5 51 16.0 1009.4 6.1 13.3 E 1013.7 5.9 16.0 0.0
17-05-2024 02:26 5 53 15.8 1009.2 2.5 9.7 N 1013.5 6.3 15.8 0.0
17-05-2024 02:31 5 53 15.6 1009.4 3.6 7.2 SEE 1013.7 6.1 15.6 0.0
17-05-2024 02:36 5 52 15.7 1009.4 5.0 11.2 E 1013.7 5.9 15.7 0.0
17-05-2024 02:41 5 53 15.6 1009.5 6.1 11.2 SE 1013.8 6.1 15.6 0.0
17-05-2024 02:46 5 54 15.4 1009.4 5.0 9.7 NEE 1013.7 6.2 15.4 0.0
17-05-2024 02:51 5 54 15.4 1009.3 3.6 6.1 SSE 1013.6 6.2 15.4 0.0
17-05-2024 02:56 5 54 15.4 1009.2 6.1 9.7 E 1013.5 6.2 15.4 0.0
17-05-2024 03:01 5 55 15.3 1009.2 1.1 3.6 SEE 1013.5 6.3 15.3 0.0
17-05-2024 03:06 5 54 15.2 1009.4 3.6 7.2 SE 1013.7 6.0 15.2 0.0
17-05-2024 03:11 5 54 15.4 1009.3 3.6 7.2 E 1013.6 6.2 15.4 0.0
17-05-2024 03:16 5 55 15.1 1009.1 2.5 7.2 SSE 1013.4 6.1 15.1 0.0
17-05-2024 03:21 5 55 15.0 1009.2 5.0 9.7 E 1013.5 6.1 15.0 0.0
17-05-2024 03:26 5 55 15.0 1009.4 3.6 9.7 NEE 1013.7 6.1 15.0 0.0
17-05-2024 03:31 5 55 14.9 1009.1 3.6 6.1 NNE 1013.4 6.0 14.9 0.0
17-05-2024 03:36 5 55 14.9 1009.1 2.5 6.1 SE 1013.4 6.0 14.9 0.0
17-05-2024 03:41 5 56 14.8 1009.1 2.5 3.6 SEE 1013.4 6.1 14.8 0.0
17-05-2024 03:46 5 56 14.7 1009.0 3.6 7.2 NNE 1013.3 6.0 14.7 0.0
17-05-2024 03:51 5 55 14.8 1009.4 2.5 6.1 E 1013.7 5.9 14.8 0.0
17-05-2024 03:56 5 56 14.7 1009.2 2.5 6.1 SE 1013.5 6.0 14.7 0.0
17-05-2024 04:01 5 57 14.6 1009.2 2.5 3.6 SE 1013.5 6.2 14.6 0.0
17-05-2024 04:06 5 57 14.6 1009.4 2.5 7.2 SEE 1013.7 6.2 14.6 0.0
17-05-2024 04:11 5 56 14.6 1009.3 3.6 7.2 SSE 1013.6 5.9 14.6 0.0
17-05-2024 04:16 5 56 14.6 1009.0 3.6 6.1 SE 1013.3 5.9 14.6 0.0
17-05-2024 04:21 5 57 14.5 1009.3 3.6 6.1 SE 1013.6 6.1 14.5 0.0
17-05-2024 04:26 5 57 14.4 1009.1 3.6 6.1 E 1013.4 6.0 14.4 0.0
17-05-2024 04:31 5 57 14.4 1009.3 1.1 3.6 E 1013.6 6.0 14.4 0.0
17-05-2024 04:36 5 58 14.2 1009.3 1.1 2.5 SE 1013.6 6.1 14.2 0.0
17-05-2024 04:41 5 59 14.0 1009.2 1.1 3.6 SEE 1013.5 6.1 14.0 0.0
17-05-2024 04:46 5 59 13.8 1009.4 0.0 2.5 SSE 1013.7 5.9 13.8 0.0
17-05-2024 04:51 5 60 13.8 1009.3 1.1 2.5 S 1013.6 6.2 13.8 0.0
17-05-2024 04:56 5 62 13.6 1009.3 1.1 2.5 SSW 1013.6 6.5 13.6 0.0
17-05-2024 05:01 5 69 11.9 1009.3 0.0 2.5 SSW 1013.6 6.4 11.9 0.0
17-05-2024 05:06 5 74 10.5 1009.6 1.1 2.5 SSW 1013.9 6.1 10.5 0.0
17-05-2024 05:11 5 76 9.9 1009.6 0.0 0.0 SSW 1013.9 5.9 9.9 0.0
17-05-2024 05:16 5 77 9.5 1009.6 0.0 0.0 SSW 1013.9 5.7 9.5 0.0
17-05-2024 05:21 5 78 9.3 1009.5 0.0 0.0 SSW 1013.8 5.7 9.3 0.0
17-05-2024 05:26 5 78 9.0 1009.7 0.0 0.0 SSW 1014.0 5.4 9.0 0.0
17-05-2024 05:31 5 80 8.8 1009.6 0.0 0.0 SSW 1013.9 5.6 8.8 0.0
17-05-2024 05:36 5 80 8.9 1009.7 0.0 0.0 SSW 1014.0 5.6 8.9 0.0
17-05-2024 05:41 5 80 8.8 1009.7 0.0 0.0 SSW 1014.0 5.6 8.8 0.0
17-05-2024 05:46 5 80 8.9 1009.7 0.0 0.0 SSW 1014.0 5.6 8.9 0.0
17-05-2024 05:51 5 81 8.8 1009.9 0.0 0.0 SSW 1014.2 5.7 8.8 0.0
17-05-2024 05:56 5 81 8.8 1009.8 0.0 0.0 SSW 1014.1 5.7 8.8 0.0
17-05-2024 06:01 5 81 8.8 1009.7 0.0 0.0 SSW 1014.0 5.7 8.8 0.0
17-05-2024 06:06 5 80 8.9 1009.9 0.0 0.0 SSW 1014.2 5.6 8.9 0.0
17-05-2024 06:11 5 79 9.5 1009.9 0.0 0.0 SSW 1014.2 6.1 9.5 0.0
17-05-2024 06:16 5 78 9.6 1009.9 0.0 0.0 SSW 1014.2 6.0 9.6 0.0
17-05-2024 06:21 5 77 10.0 1010.1 0.0 0.0 SSW 1014.4 6.2 10.0 0.0
17-05-2024 06:26 5 77 10.3 1010.0 0.0 0.0 SSW 1014.3 6.5 10.3 0.0
17-05-2024 06:31 5 77 10.2 1009.9 0.0 0.0 SSW 1014.2 6.4 10.2 0.0
17-05-2024 06:36 5 76 10.6 1010.0 0.0 0.0 S 1014.3 6.6 10.6 0.0
17-05-2024 06:41 5 76 10.8 1010.0 0.0 0.0 S 1014.3 6.8 10.8 0.0
17-05-2024 06:46 5 74 11.0 1010.0 1.1 2.5 NE 1014.3 6.6 11.0 0.0
17-05-2024 06:51 5 75 11.4 1010.1 0.0 0.0 NE 1014.4 7.1 11.4 0.0
17-05-2024 06:56 5 75 11.4 1010.1 0.0 0.0 NE 1014.4 7.1 11.4 0.0
17-05-2024 07:01 5 75 11.4 1010.1 0.0 0.0 NNE 1014.4 7.1 11.4 0.0
17-05-2024 07:06 5 75 11.4 1010.1 0.0 0.0 NNE 1014.4 7.1 11.4 0.0
17-05-2024 07:11 5 77 11.6 1010.1 0.0 0.0 NNE 1014.4 7.7 11.6 0.0
17-05-2024 07:16 5 75 11.7 1010.1 0.0 0.0 NNE 1014.4 7.4 11.7 0.0
17-05-2024 07:21 5 74 12.0 1010.3 0.0 0.0 SE 1014.6 7.5 12.0 0.0
17-05-2024 07:26 5 72 12.4 1010.0 1.1 2.5 SSW 1014.3 7.5 12.4 0.0
17-05-2024 07:31 5 73 12.9 1010.0 0.0 2.5 SSW 1014.3 8.2 12.9 0.0
17-05-2024 07:36 5 69 13.3 1009.9 0.0 0.0 SSW 1014.2 7.8 13.3 0.0
17-05-2024 07:41 5 67 14.4 1010.1 0.0 0.0 S 1014.4 8.4 14.4 0.0
17-05-2024 07:46 5 66 15.3 1010.1 2.5 3.6 NNE 1014.4 9.0 15.3 0.0
17-05-2024 07:51 5 62 16.0 1010.0 0.0 0.0 NE 1014.3 8.7 16.0 0.0
17-05-2024 07:56 5 59 16.2 1010.1 3.6 7.2 SEE 1014.4 8.2 16.2 0.0
17-05-2024 08:01 5 59 16.6 1009.9 0.0 2.5 NNE 1014.2 8.6 16.6 0.0
17-05-2024 08:06 5 58 16.8 1010.2 3.6 7.2 E 1014.5 8.5 16.8 0.0
17-05-2024 08:11 5 56 16.9 1009.9 5.0 9.7 SSE 1014.2 8.1 16.9 0.0
17-05-2024 08:16 5 57 17.2 1010.0 2.5 6.1 SEE 1014.3 8.6 17.2 0.0
17-05-2024 08:21 5 57 17.3 1009.7 1.1 3.6 SEE 1014.0 8.7 17.3 0.0
17-05-2024 08:26 5 55 17.5 1009.7 5.0 7.2 E 1014.0 8.4 17.5 0.0
17-05-2024 08:31 5 54 18.1 1009.8 5.0 11.2 SEE 1014.1 8.7 18.1 0.0
17-05-2024 08:36 5 56 17.9 1009.8 5.0 9.7 S 1014.1 9.0 17.9 0.0
17-05-2024 08:41 5 53 18.1 1009.8 7.2 11.2 NEE 1014.1 8.4 17.4 0.0
17-05-2024 08:46 5 54 18.1 1009.5 2.5 6.1 SEE 1013.8 8.7 18.1 0.0
17-05-2024 08:51 5 56 18.2 1009.6 2.5 7.2 SSE 1013.9 9.3 18.2 0.0
17-05-2024 08:56 5 55 18.2 1009.8 5.0 9.7 SE 1014.1 9.0 18.2 0.0
17-05-2024 09:01 5 55 18.0 1009.6 6.1 11.2 NEE 1013.9 8.8 18.0 0.0
17-05-2024 09:06 5 55 18.1 1009.7 6.1 11.2 SEE 1014.0 8.9 18.1 0.0
17-05-2024 09:11 5 56 18.1 1009.5 6.1 11.2 SEE 1013.8 9.2 18.1 0.0
17-05-2024 09:16 5 55 18.6 1009.8 2.5 7.2 SE 1014.1 9.4 18.6 0.0
17-05-2024 09:21 5 53 18.5 1009.5 7.2 14.8 E 1013.8 8.8 17.8 0.0
17-05-2024 09:26 5 53 18.7 1009.7 8.6 14.8 E 1014.0 9.0 17.5 0.0
17-05-2024 09:31 5 54 18.7 1009.5 7.2 11.2 E 1013.8 9.2 18.0 0.0
17-05-2024 09:36 5 53 18.9 1009.6 8.6 13.3 SEE 1013.9 9.1 17.7 0.0
17-05-2024 09:41 5 54 18.8 1009.6 5.0 9.7 NEE 1013.9 9.3 18.8 0.0
17-05-2024 09:46 5 53 19.0 1009.6 9.7 17.3 SEE 1013.9 9.2 17.4 0.0
17-05-2024 09:51 5 53 19.4 1009.8 6.1 13.3 E 1014.1 9.6 19.4 0.0
17-05-2024 09:56 5 51 19.4 1009.7 8.6 14.8 E 1014.0 9.0 18.2 0.0
17-05-2024 10:01 5 52 19.6 1009.5 6.1 11.2 E 1013.8 9.5 19.6 0.0
17-05-2024 10:06 5 52 19.8 1009.7 7.2 14.8 SEE 1014.0 9.7 19.2 0.0
17-05-2024 10:11 5 51 19.9 1009.6 6.1 13.3 SE 1013.9 9.5 19.9 0.0
17-05-2024 10:16 5 51 19.7 1009.4 9.7 17.3 E 1013.7 9.3 18.2 0.0
17-05-2024 10:21 5 49 19.7 1009.6 8.6 14.8 E 1013.9 8.7 18.5 0.0
17-05-2024 10:26 5 50 20.0 1010.1 7.2 13.3 E 1014.4 9.3 19.4 0.0
17-05-2024 10:31 5 50 20.6 1009.6 3.6 7.2 SEE 1013.9 9.8 20.6 0.0
17-05-2024 10:36 5 49 20.6 1009.8 6.1 13.3 SEE 1014.1 9.5 20.6 0.0
17-05-2024 10:41 5 49 20.6 1009.8 9.7 20.9 SEE 1014.1 9.5 19.2 0.0
17-05-2024 10:46 5 48 20.7 1009.8 9.7 17.3 SE 1014.1 9.3 19.3 0.0
17-05-2024 10:51 5 47 20.8 1009.9 13.3 22.0 E 1014.2 9.1 18.6 0.0
17-05-2024 10:56 5 48 20.6 1009.9 8.6 14.8 SEE 1014.2 9.2 19.5 0.0
17-05-2024 11:01 5 50 20.9 1009.9 8.6 14.8 E 1014.2 10.1 19.8 0.0
17-05-2024 11:06 5 49 21.1 1009.6 3.6 9.7 E 1013.9 10.0 21.1 0.0
17-05-2024 11:11 5 49 21.3 1009.6 8.6 17.3 SEE 1013.9 10.2 20.3 0.0
17-05-2024 11:16 5 49 21.5 1009.4 6.1 14.8 SE 1013.7 10.4 21.5 0.0
17-05-2024 11:21 5 48 21.3 1009.9 8.6 14.8 SE 1014.2 9.9 20.3 0.0
17-05-2024 11:26 5 47 21.5 1009.7 8.6 17.3 SE 1014.0 9.7 20.5 0.0
17-05-2024 11:31 5 47 21.5 1009.8 11.2 18.4 SE 1014.1 9.7 19.9 0.0
17-05-2024 11:37 6 47 21.7 1009.7 11.2 18.4 E 1014.0 9.9 20.1 0.0
17-05-2024 11:42 5 48 21.6 1009.8 12.2 22.0 SE 1014.1 10.1 19.7 0.0
17-05-2024 11:47 5 47 21.6 1009.7 8.6 20.9 SEE 1014.0 9.8 20.6 0.0
17-05-2024 11:53 6 43 22.0 1009.6 8.6 18.4 NEE 1013.9 8.9 21.0 0.0
17-05-2024 11:58 5 45 22.0 1009.7 6.1 11.2 E 1014.0 9.5 22.0 0.0
17-05-2024 12:03 5 43 22.4 1009.7 8.6 17.3 SEE 1014.0 9.2 21.5 0.0
17-05-2024 12:09 6 43 22.0 1009.6 6.1 9.7 SEE 1013.9 8.9 22.0 0.0
17-05-2024 12:14 5 44 22.6 1009.6 5.0 14.8 E 1013.9 9.8 22.6 0.0
17-05-2024 12:19 5 43 22.6 1009.6 8.6 17.3 SEE 1013.9 9.4 21.7 0.0
17-05-2024 12:25 6 42 22.5 1009.3 9.7 14.8 E 1013.6 9.0 21.3 0.0
17-05-2024 12:30 5 40 22.7 1009.5 9.7 18.4 SSW 1013.8 8.4 21.5 0.0
17-05-2024 12:35 5 42 22.6 1009.4 8.6 14.8 SE 1013.7 9.1 21.7 0.0
17-05-2024 12:40 6 40 22.6 1009.2 8.6 13.3 E 1013.5 8.3 21.7 0.0
17-05-2024 12:45 5 42 22.7 1009.5 9.7 20.9 SEE 1013.8 9.2 21.5 0.0
17-05-2024 12:50 5 42 22.9 1009.3 6.1 13.3 E 1013.6 9.3 22.9 0.0
17-05-2024 12:56 6 43 22.8 1009.4 5.0 9.7 E 1013.7 9.6 22.8 0.0
17-05-2024 13:01 5 44 22.9 1009.2 7.2 14.8 E 1013.5 10.0 22.4 0.0
17-05-2024 13:06 5 42 23.0 1009.4 15.8 25.6 E 1013.7 9.4 20.8 0.0
17-05-2024 13:11 5 43 22.9 1009.3 7.2 14.8 SEE 1013.6 9.7 22.4 0.0
17-05-2024 13:16 5 43 23.0 1009.2 7.2 14.8 NEE 1013.5 9.8 22.5 0.0
17-05-2024 13:21 5 43 23.3 1009.1 5.0 9.7 SSE 1013.4 10.0 23.3 0.0
17-05-2024 13:26 5 44 23.6 1009.1 7.2 13.3 E 1013.4 10.7 23.1 0.0
17-05-2024 13:31 5 43 23.1 1009.1 5.0 6.1 SEE 1013.4 9.9 23.1 0.0
17-05-2024 13:36 5 46 23.3 1009.4 7.2 13.3 E 1013.7 11.1 22.8 0.0
17-05-2024 13:41 5 46 23.2 1009.3 11.2 20.9 NEE 1013.6 11.0 21.8 0.0
17-05-2024 13:46 5 44 22.9 1009.2 6.1 14.8 E 1013.5 10.0 22.9 0.0
17-05-2024 13:51 5 43 23.2 1009.1 12.2 20.9 E 1013.4 10.0 21.6 0.0
17-05-2024 13:56 5 42 23.5 1009.0 6.1 11.2 SE 1013.3 9.9 23.5 0.0
17-05-2024 14:01 5 42 23.5 1009.0 9.7 17.3 E 1013.3 9.9 22.4 0.0
17-05-2024 14:06 5 44 23.2 1009.1 8.6 14.8 E 1013.4 10.3 22.3 0.0
17-05-2024 14:12 6 44 23.4 1009.0 8.6 18.4 NE 1013.3 10.5 22.6 0.0
17-05-2024 14:17 5 41 23.4 1008.8 11.2 20.9 SEE 1013.1 9.4 22.0 0.0
17-05-2024 14:22 5 44 23.4 1009.0 9.7 18.4 NE 1013.3 10.5 22.3 0.0
17-05-2024 14:27 5 40 23.4 1008.8 6.1 17.3 NEE 1013.1 9.1 23.4 0.0
17-05-2024 14:32 5 42 23.5 1008.8 11.2 18.4 E 1013.1 9.9 22.1 0.0
17-05-2024 14:37 5 40 23.3 1008.8 11.2 17.3 E 1013.1 9.0 21.9 0.0
17-05-2024 14:42 5 42 23.4 1008.9 11.2 20.9 SE 1013.2 9.8 22.0 0.0
17-05-2024 14:47 5 40 23.6 1009.0 6.1 11.2 SEE 1013.3 9.2 23.6 0.0
17-05-2024 14:52 5 39 23.6 1008.7 8.6 14.8 NEE 1013.0 8.9 22.8 0.0
17-05-2024 14:57 5 40 23.3 1008.8 11.2 18.4 NEE 1013.1 9.0 21.9 0.0
17-05-2024 15:02 5 40 23.4 1008.6 9.7 18.4 SEE 1012.9 9.1 22.3 0.0
17-05-2024 15:07 5 41 23.6 1008.7 8.6 14.8 SEE 1013.0 9.6 22.8 0.0
17-05-2024 15:12 5 39 23.7 1008.7 7.2 11.2 SEE 1013.0 9.0 23.2 0.0
17-05-2024 15:17 5 41 23.6 1008.7 8.6 14.8 SEE 1013.0 9.6 22.8 0.0
17-05-2024 15:22 5 37 23.4 1008.8 9.7 13.3 NE 1013.1 7.9 22.3 0.0
17-05-2024 15:27 5 39 23.6 1008.6 8.6 17.3 NE 1012.9 8.9 22.8 0.0
17-05-2024 15:32 5 39 23.3 1008.8 6.1 11.2 SEE 1013.1 8.6 23.3 0.0
17-05-2024 15:37 5 41 23.3 1008.6 3.6 7.2 E 1012.9 9.3 23.3 0.0
17-05-2024 15:42 5 44 23.7 1008.6 7.2 13.3 SEE 1012.9 10.8 23.2 0.0
17-05-2024 15:47 5 42 23.8 1008.5 8.6 17.3 E 1012.8 10.1 23.0 0.0
17-05-2024 15:52 5 45 23.2 1008.6 6.1 13.3 NEE 1012.9 10.6 23.2 0.0
17-05-2024 15:57 5 44 23.4 1008.6 7.2 14.8 S 1012.9 10.5 22.9 0.0
17-05-2024 16:02 5 46 23.3 1008.7 5.0 7.2 SEE 1013.0 11.1 23.3 0.0
17-05-2024 16:07 5 46 23.5 1008.8 8.6 14.8 NE 1013.1 11.2 22.7 0.0
17-05-2024 16:12 5 41 23.3 1008.6 8.6 18.4 SEE 1012.9 9.3 22.5 0.0
17-05-2024 16:17 5 42 23.1 1008.8 8.6 14.8 NE 1013.1 9.5 22.2 0.0
17-05-2024 16:22 5 43 23.1 1008.5 6.1 9.7 E 1012.8 9.9 23.1 0.0
17-05-2024 16:27 5 44 23.2 1008.6 8.6 14.8 NNE 1012.9 10.3 22.3 0.0
17-05-2024 16:32 5 43 23.1 1008.7 8.6 14.8 SEE 1013.0 9.9 22.2 0.0
17-05-2024 16:37 5 42 23.3 1008.6 6.1 14.8 SEE 1012.9 9.7 23.3 0.0
17-05-2024 16:42 5 41 23.1 1008.7 8.6 14.8 SEE 1013.0 9.2 22.2 0.0
17-05-2024 16:47 5 46 22.9 1008.7 7.2 13.3 SEE 1013.0 10.7 22.4 0.0
17-05-2024 16:52 5 46 22.8 1008.7 7.2 14.8 SE 1013.0 10.6 22.3 0.0
17-05-2024 16:57 5 44 22.9 1008.7 8.6 18.4 N 1013.0 10.0 22.0 0.0
17-05-2024 17:02 5 44 22.6 1008.7 6.1 11.2 NEE 1013.0 9.8 22.6 0.0
17-05-2024 17:07 5 45 22.7 1008.9 5.0 7.2 NEE 1013.2 10.2 22.7 0.0
17-05-2024 17:12 5 46 22.7 1008.6 3.6 7.2 E 1012.9 10.5 22.7 0.0
17-05-2024 17:17 5 43 22.5 1008.9 7.2 14.8 SEE 1013.2 9.3 22.0 0.0
17-05-2024 17:22 5 47 22.4 1008.8 5.0 9.7 SEE 1013.1 10.6 22.4 0.0
17-05-2024 17:27 5 45 22.7 1008.7 6.1 11.2 NNW 1013.0 10.2 22.7 0.0
17-05-2024 17:32 5 46 22.4 1008.8 6.1 9.7 E 1013.1 10.2 22.4 0.0
17-05-2024 17:37 5 45 22.1 1008.7 6.1 11.2 E 1013.0 9.6 22.1 0.0
17-05-2024 17:42 5 48 22.0 1008.9 7.2 14.8 SEE 1013.2 10.5 21.5 0.0
17-05-2024 17:47 5 45 22.1 1008.7 6.1 14.8 NNE 1013.0 9.6 22.1 0.0
17-05-2024 17:52 5 45 22.0 1008.6 7.2 14.8 E 1012.9 9.5 21.5 0.0
17-05-2024 17:57 5 46 21.9 1008.7 6.1 9.7 SE 1013.0 9.8 21.9 0.0
17-05-2024 18:02 5 45 21.8 1008.5 7.2 14.8 E 1012.8 9.4 21.3 0.0
17-05-2024 18:07 5 47 21.8 1008.7 7.2 14.8 NNW 1013.0 10.0 21.3 0.0
17-05-2024 18:12 5 45 21.7 1008.7 3.6 11.2 E 1013.0 9.3 21.7 0.0
17-05-2024 18:17 5 45 21.6 1008.8 7.2 13.3 SEE 1013.1 9.2 21.0 0.0
17-05-2024 18:22 5 46 21.4 1008.6 6.1 13.3 SEE 1012.9 9.3 21.4 0.0
17-05-2024 18:27 5 46 21.4 1008.7 8.6 17.3 NEE 1013.0 9.3 20.4 0.0
17-05-2024 18:32 5 48 21.3 1008.4 5.0 7.2 E 1012.7 9.9 21.3 0.0
17-05-2024 18:37 5 46 21.3 1008.4 8.6 20.9 E 1012.7 9.2 20.3 0.0
17-05-2024 18:42 5 47 21.1 1008.7 5.0 9.7 NE 1013.0 9.4 21.1 0.0
17-05-2024 18:47 5 48 20.9 1008.7 3.6 11.2 E 1013.0 9.5 20.9 0.0
17-05-2024 18:52 5 46 20.8 1008.7 6.1 14.8 SEE 1013.0 8.8 20.8 0.0
17-05-2024 18:57 5 46 20.7 1008.6 5.0 9.7 E 1012.9 8.7 20.7 0.0
17-05-2024 19:02 5 47 20.5 1008.8 2.5 6.1 SE 1013.1 8.8 20.5 0.0
17-05-2024 19:07 5 47 20.2 1008.9 5.0 9.7 SEE 1013.2 8.6 20.2 0.0
17-05-2024 19:12 5 47 20.2 1008.7 6.1 13.3 E 1013.0 8.6 20.2 0.0
17-05-2024 19:17 5 47 20.0 1008.6 3.6 7.2 E 1012.9 8.4 20.0 0.0
17-05-2024 19:22 5 50 19.8 1008.5 2.5 6.1 SEE 1012.8 9.1 19.8 0.0
17-05-2024 19:27 5 48 19.6 1008.5 5.0 13.3 NNW 1012.8 8.3 19.6 0.0
17-05-2024 19:32 5 49 19.5 1008.6 5.0 11.2 NEE 1012.9 8.5 19.5 0.0
17-05-2024 19:37 5 49 19.3 1008.8 3.6 7.2 NE 1013.1 8.3 19.3 0.0
17-05-2024 19:42 5 48 19.2 1008.7 2.5 3.6 NEE 1013.0 7.9 19.2 0.0
17-05-2024 19:47 5 47 19.0 1008.7 9.7 17.3 E 1013.0 7.5 17.4 0.0
17-05-2024 19:52 5 49 18.8 1008.8 5.0 11.2 SEE 1013.1 7.9 18.8 0.0
17-05-2024 19:57 5 51 18.6 1008.8 5.0 9.7 SEE 1013.1 8.3 18.6 0.0
17-05-2024 20:02 5 54 18.2 1008.7 1.1 3.6 E 1013.0 8.8 18.2 0.0
17-05-2024 20:07 5 53 17.9 1008.8 2.5 6.1 E 1013.1 8.2 17.9 0.0
17-05-2024 20:12 5 54 17.8 1008.8 5.0 11.2 SEE 1013.1 8.4 17.8 0.0
17-05-2024 20:17 5 54 17.6 1008.8 1.1 7.2 E 1013.1 8.2 17.6 0.0
17-05-2024 20:22 5 55 17.4 1008.9 1.1 2.5 SE 1013.2 8.3 17.4 0.0
17-05-2024 20:27 5 56 17.3 1008.7 1.1 2.5 E 1013.0 8.5 17.3 0.0
17-05-2024 20:32 5 56 17.1 1008.9 0.0 2.5 SWW 1013.2 8.3 17.1 0.0
17-05-2024 20:37 5 56 16.8 1008.9 3.6 9.7 SEE 1013.2 8.0 16.8 0.0
17-05-2024 20:42 5 57 16.7 1009.1 2.5 6.1 E 1013.4 8.2 16.7 0.0
17-05-2024 20:47 5 57 16.4 1008.8 2.5 7.2 E 1013.1 7.9 16.4 0.0
17-05-2024 20:52 5 57 16.3 1009.0 3.6 7.2 NE 1013.3 7.8 16.3 0.0
17-05-2024 20:57 5 56 16.3 1009.0 5.0 13.3 NEE 1013.3 7.5 16.3 0.0
17-05-2024 21:02 5 58 16.1 1008.9 3.6 6.1 SSE 1013.2 7.9 16.1 0.0
17-05-2024 21:07 5 58 15.8 1009.0 2.5 3.6 SEE 1013.3 7.6 15.8 0.0
17-05-2024 21:12 5 58 15.8 1009.1 2.5 3.6 NW 1013.4 7.6 15.8 0.0
17-05-2024 21:17 5 60 15.5 1009.2 1.1 2.5 SEE 1013.5 7.8 15.5 0.0
17-05-2024 21:22 5 61 15.3 1009.1 0.0 2.5 SE 1013.4 7.8 15.3 0.0
17-05-2024 21:27 5 62 15.1 1009.5 2.5 6.1 SEE 1013.8 7.9 15.1 0.0
17-05-2024 21:32 5 63 15.0 1009.2 1.1 2.5 SEE 1013.5 8.0 15.0 0.0
17-05-2024 21:37 5 63 14.9 1009.3 1.1 3.6 SEE 1013.6 7.9 14.9 0.0
17-05-2024 21:42 5 63 14.8 1009.6 1.1 2.5 SE 1013.9 7.8 14.8 0.0
17-05-2024 21:47 5 64 14.6 1009.3 0.0 2.5 SSE 1013.6 7.9 14.6 0.0
17-05-2024 21:52 5 65 14.6 1009.5 2.5 6.1 SEE 1013.8 8.1 14.6 0.0
17-05-2024 21:57 5 65 14.4 1009.4 2.5 3.6 E 1013.7 7.9 14.4 0.0
17-05-2024 22:02 5 66 14.4 1009.5 2.5 3.6 NEE 1013.8 8.1 14.4 0.0
17-05-2024 22:07 5 66 14.1 1009.4 1.1 2.5 E 1013.7 7.9 14.1 0.0
17-05-2024 22:12 5 67 13.9 1009.5 1.1 6.1 SEE 1013.8 7.9 13.9 0.0
17-05-2024 22:17 5 68 13.8 1009.2 1.1 3.6 SSE 1013.5 8.0 13.8 0.0
17-05-2024 22:22 5 69 13.5 1009.4 2.5 3.6 SEE 1013.7 7.9 13.5 0.0
17-05-2024 22:27 5 69 13.5 1009.4 1.1 3.6 SEE 1013.7 7.9 13.5 0.0
17-05-2024 22:32 5 70 13.3 1009.3 0.0 0.0 SSE 1013.6 8.0 13.3 0.0
17-05-2024 22:37 5 70 13.2 1009.5 0.0 0.0 SSE 1013.8 7.9 13.2 0.0
17-05-2024 22:42 5 70 13.1 1009.4 0.0 0.0 E 1013.7 7.8 13.1 0.0
17-05-2024 22:47 5 71 12.8 1009.4 0.0 0.0 NWW 1013.7 7.7 12.8 0.0
17-05-2024 22:52 5 71 12.9 1009.4 0.0 0.0 NW 1013.7 7.8 12.9 0.0
17-05-2024 22:57 5 72 12.7 1009.4 0.0 0.0 NWW 1013.7 7.8 12.7 0.0
17-05-2024 23:02 5 74 12.1 1009.6 0.0 2.5 NWW 1013.9 7.6 12.1 0.0
17-05-2024 23:07 5 75 11.7 1009.4 0.0 0.0 NWW 1013.7 7.4 11.7 0.0
17-05-2024 23:12 5 75 11.7 1009.5 1.1 3.6 W 1013.8 7.4 11.7 0.0
17-05-2024 23:17 5 76 11.4 1009.4 0.0 0.0 NWW 1013.7 7.3 11.4 0.0
17-05-2024 23:22 5 77 11.0 1009.5 0.0 0.0 NWW 1013.8 7.1 11.0 0.0
17-05-2024 23:27 5 78 10.7 1009.6 0.0 0.0 NWW 1013.9 7.0 10.7 0.0
17-05-2024 23:32 5 79 10.6 1009.6 0.0 0.0 NWW 1013.9 7.1 10.6 0.0
17-05-2024 23:37 5 79 10.6 1009.5 0.0 0.0 NWW 1013.8 7.1 10.6 0.0
17-05-2024 23:42 5 78 10.7 1009.3 0.0 0.0 NWW 1013.6 7.0 10.7 0.0
17-05-2024 23:47 5 79 10.5 1009.4 0.0 0.0 NWW 1013.7 7.0 10.5 0.0
17-05-2024 23:52 5 80 10.3 1009.5 0.0 0.0 NWW 1013.8 7.0 10.3 0.0
17-05-2024 23:57 5 80 10.2 1009.4 0.0 0.0 NWW 1013.7 6.9 10.2 0.0

 

Tagesdaten                                                                    Tabelle: 08:00 Uhr

STATIONHÖHELUFTD.TEMP.T-MinT-MaxU%RR1RR12SSSDDFFFXWetter+WolkenBöen
Helgoland 4 1009.9 14.7 14.4 17.0 81 0.0 0 0 O 23 33 --- ---
List/Sylt 26 1011.5 15.6 13.8 18.0 66 0.0 0 0 O 33 44 --- ---
Schleswig 43 1011.7 16.0 11.8 16.8 62 0.0 0 0 O 16 26 --- ---
Leuchtturm Kiel 5 1011.9 14.0 13.6 15.2 73 ---- --- --- O 45 47 --- ---
Kiel 27 1011.5 16.8 13.1 17.4 62 0.0 0 0 O 15 23 --- ---
Fehmarn 3 1013.1 13.8 12.6 15.3 75 0.0 0 0 O 25 37 --- ---
Arkona 42 1016.0 13.4 11.9 13.5 72 0.0 0 0 O 16 40 wolkenlos ---
Norderney 11 1008.9 17.8 15.9 20.4 72 0.0 0 0 O 14 26 --- ---
Cuxhaven 5 1009.8 16.6 16.2 21.1 69 0.0 0 0 O 30 41 --- ---
Hamburg-Flh. 11 ------ --- --- --- --- ---- --- --- -- --- --- --- ---
Schwerin 59 1011.5 17.1 14.9 23.1 52 0.0 0 0 O 12 26 --- ---
Rostock 4 1013.3 16.9 15.0 21.7 47 0.0 0 0 SO 23 39 --- ---
Greifswald 2 1014.6 16.9 13.2 20.3 50 0.0 0 0 SO 19 32 wolkenlos ---
Emden 0 1008.3 16.2 12.0 17.1 74 0.0 0 0 O 11 18 --- ---
Bremen-Flh. 5 1008.3 17.6 15.9 19.7 56 0.0 0 --- O 18 28 --- ---
Lüchow 17 1010.1 17.2 16.3 23.1 57 0.0 0 0 O 10 22 Regen ---
Marnitz 81 1011.4 16.9 14.2 22.9 51 0.0 0 0 O 9 24 wolkenlos ---
Waren 70 1012.5 16.0 13.8 22.4 48 0.0 0 0 O 17 31 wolkenlos ---
Neuruppin 38 1011.7 16.9 14.5 22.7 45 0.0 0 0 O 17 37 --- ---
Angermünde 56 1013.4 16.3 13.1 22.1 47 0.0 0 0 O 18 27 --- ---
Münster/Osnabr.-Flh. 48 1006.6 15.3 11.7 15.5 85 0.0 0 0 NO 3 9 --- ---
Hannover-Flh. 59 1007.5 16.9 12.6 18.3 60 0.0 0 0 O 21 29 --- ---
Magdeburg 76 1008.1 18.7 17.0 19.3 49 0.0 0 0 O 14 34 --- ---
Potsdam 81 1010.6 16.6 15.8 22.9 52 0.0 0 0 O 18 32 wolkenlos ---
Berlin-Brandenburg-Flgh. 46 1011.2 17.0 14.3 23.0 47 0.0 0 --- O 24 37 --- ---
Berlin-Tempelhof 48 1011.3 16.7 14.5 23.7 48 0.0 0 0 O 23 39 wolkenlos ---
Lindenberg 91 1011.4 15.9 14.1 22.2 46 0.0 0 0 O 15 33 --- ---
Düsseldorf-Flh. 45 1006.4 13.8 10.4 15.4 96 0.0 0 --- N 4 11 Dunst oder flacher Nebel ---
Essen 150 1006.5 13.3 11.2 14.5 99 0.0 0 0 N 6 13 Nebel ---
Kahler Asten 839 ------ 9.6 9.2 11.8 95 0.0 0 0 O 19 36 --- ---
Bad Lippspringe 157 1006.0 15.3 11.3 17.1 74 0.0 0 0 O 15 27 --- ---
Brocken 1142 ------ 8.5 7.0 8.6 79 0.0 0 0 O 52 75 --- Sturmböen
Leipzig-Flh. 142 1007.1 18.2 12.4 18.3 53 0.0 0 0 O 28 42 --- ---
Dresden-Flh. 227 1008.4 15.9 15.2 18.8 56 0.0 0 0 O 20 33 --- ---
Cottbus 69 1010.7 15.7 15.2 22.5 51 0.0 0 0 O 14 27 --- ---
Görlitz 238 1010.2 15.0 13.4 19.6 61 0.0 0 0 O 15 26 --- ---
Aachen 231 1006.9 12.9 11.3 17.0 100 0.0 0 0 NW 12 22 Nebel ---
Nürburg 485 ------ --- --- --- --- ---- --- --- -- --- --- --- ---
Köln/Bonn-Flh. 92 1006.1 12.8 12.3 15.6 97 0.0 0 --- N 15 25 Dunst oder flacher Nebel ---
Gießen/Wettenberg 203 1004.0 14.0 12.2 17.8 83 0.0 0 0 N 19 33 --- ---
Wasserkuppe 921 ------ 10.2 9.3 11.4 85 0.0 1 0 SO 27 48 --- ---
Meiningen 450 1004.5 12.4 10.3 13.3 82 0.0 0 0 NO 5 13 --- ---
Erfurt 316 1005.6 13.2 10.4 13.5 81 0.0 3 --- NO 10 18 --- ---
Gera 311 1005.8 15.8 12.4 17.2 61 0.0 0 0 O 23 35 --- ---
Fichtelberg 1213 ------ 6.3 6.1 9.4 93 0.2 0 0 O 64 88 leichter Regen Sturmböen
Trier 265 1005.7 12.2 12.1 16.8 97 3.8 7 0 W 8 14 Regen ---
Hahn-Flh. 497 1004.7 11.6 11.3 16.3 96 0.5 1 --- N 13 26 Regen ---
Frankfurt/M-Flh. 112 1003.6 14.6 14.4 21.0 85 0.0 1 0 NO 14 26 leichter Regen ---
OF-Wetterpark 119 1003.8 13.6 13.3 19.7 93 0.7 3 --- N 5 19 leichter Regen ---
Würzburg 268 1003.8 12.6 12.6 18.1 93 1.6 4 0 O 5 24 leichter Regen ---
Bamberg 239 1003.8 13.4 11.9 16.1 85 0.1 7 0 O 4 8 Regen ---
Hof 567 1004.9 12.9 11.6 16.3 66 0.0 0 0 O 17 35 --- ---
Weiden 438 1004.1 12.5 12.5 16.8 80 0.1 0 0 O 19 37 leichter Regen ---
Saarbrücken-Flh. 320 1005.0 11.0 11.0 15.5 98 8.5 37 --- W 24 40 Regen ---
Karlsruhe-Rheinst. 116 1003.8 11.8 11.8 18.0 96 4.1 47 0 SW 29 45 Regen ---
Mannheim 96 1003.0 13.8 13.7 20.4 95 1.1 8 0 NW 13 21 leichter Regen ---
Stuttgart-Flh. 371 1004.1 11.2 11.2 19.2 91 0.8 53 0 SW 9 18 leichter Regen ---
Öhringen 276 1003.3 11.7 11.6 19.7 99 5.4 13 0 SW 13 37 leichter Regen ---
Nürnberg-Flh. 314 1003.2 12.7 12.1 15.7 92 0.1 8 0 O 11 20 leichter Regen ---
Regensburg 366 1004.6 11.2 11.2 19.8 93 1.2 12 0 SW 19 39 Regen ---
Straubing 351 1005.4 11.1 11.1 19.1 91 1.8 10 0 SW 17 30 leichter Regen ---
Großer Arber 1436 ------ 6.1 6.0 9.4 99 4.0 7 0 SO 28 42 Niederschlag ---
Lahr 155 1006.9 11.7 11.5 14.3 94 1.8 39 0 S 24 36 leichter Regen ---
Freudenstadt 797 ------ 7.6 7.5 11.6 94 1.2 36 0 W 25 46 leichter Regen ---
Stötten 734 1004.7 8.4 8.4 13.1 97 3.1 24 0 SW 23 39 Regen ---
Augsburg 462 1005.4 10.0 10.0 16.2 86 0.0 18 0 SW 26 43 leichter Regen ---
München-Flh. 444 1005.8 10.9 10.2 19.2 78 0.0 11 0 SW 30 41 Regen ---
Fürstenzell 476 1005.9 9.9 9.9 17.0 98 5.6 11 0 W 26 47 Regen ---
Feldberg/Schw. 1486 ------ 2.8 2.1 5.8 100 1.5 27 0 W 46 62 Niederschlag Windböen
Konstanz 443 1007.9 10.3 9.9 12.7 88 1.2 39 0 W 23 40 leichter Regen ---
Kempten 705 1007.9 8.0 7.4 14.0 89 0.8 13 0 S 13 33 leichter Regen ---
Oberstdorf 806 ------ 8.2 7.4 14.9 91 0.5 18 0 SO 3 7 leichter Regen ---
Zugspitze 2960 ------ -4.8 -4.8 0.6 94 ---- --- --- W 57 81 leichter Schneefall Sturmböen
Hohenpeißenberg 977 ------ 5.5 5.0 11.5 94 0.5 18 0 SW 44 74 leichter Regen Sturmböen

                                                                                                     Tabelle: 20:00 Uhr   

STATIONHÖHELUFTD.TEMP.T-MinT-MaxU%RR1RR12SSSDDFFFXWetter+WolkenBöen
Helgoland 4 1010.3 16.7 14.4 19.7 69 0.0 0 0 O 27 40 wolkenlos ---
List/Sylt 26 1012.5 17.8 15.6 22.9 47 0.0 0 0 O 41 58 wolkenlos Windböen
Schleswig 43 1012.4 17.0 15.9 20.2 48 0.0 0 0 O 21 54 wolkenlos Windböen
Leuchtturm Kiel 5 1011.7 14.5 13.3 15.4 69 ---- --- --- O 51 66 --- Sturmböen
Kiel 27 1011.9 15.2 15.1 19.7 67 0.0 0 0 O 24 45 wolkenlos ---
Fehmarn 3 1012.8 13.7 13.3 16.5 77 0.0 0 0 O 34 47 wolkenlos ---
Arkona 42 1013.7 12.5 12.5 14.9 78 0.0 0 0 O 47 66 wolkenlos Sturmböen
Norderney 11 1009.1 17.7 17.1 21.1 70 0.0 0 0 NO 27 43 --- ---
Cuxhaven 5 1009.6 20.7 16.6 24.0 53 0.0 0 0 O 37 48 wolkenlos ---
Hamburg-Flh 11 ------ --- --- --- --- ---- --- --- -- --- --- --- ---
Schwerin 59 1010.0 21.5 17.0 24.4 36 0.0 0 0 NO 14 33 --- ---
Rostock 4 1011.9 19.4 17.0 24.8 43 0.0 0 0 O 15 30 wolkenlos ---
Greifswald 2 1012.7 16.5 16.4 21.4 66 0.0 0 0 O 10 28 wolkenlos ---
Emden 0 1008.3 21.8 16.2 25.2 52 0.0 0 0 O 9 19 --- ---
Bremen-Flh. 5 1008.0 23.3 17.6 25.6 33 0.0 0 --- O 20 33 wolkenlos ---
Lüchow 17 1008.6 23.8 17.3 25.2 30 0.0 0 0 O 14 35 --- ---
Marnitz 81 1009.5 22.2 16.9 24.6 34 0.0 0 0 O 8 31 wolkenlos ---
Waren 70 1010.5 21.7 16.0 24.6 34 0.0 0 0 O 13 35   ---
Neuruppin 38 1009.5 22.4 16.9 25.2 28 0.0 0 0 O 16 40 --- ---
Angermünde 56 1010.4 22.3 16.3 25.2 33 0.0 0 0 O 24 42 --- ---
Münster/Osnabr.-Flh. 48 1007.2 21.2 15.4 23.0 53 0.0 0 0 O 2 13 --- ---
Hannover-Flh. 59 1007.9 21.2 16.9 24.7 47 0.0 0 0 SO 22 38 --- ---
Magdeburg 76 1009.0 19.2 18.5 25.5 51 0.0 0 0 SO 11 30 --- ---
Potsdam 81 1009.5 20.4 16.7 26.6 45 0.0 0 0 S 13 32 --- ---
Berlin-Brandenburg-Flgh. 46 1010.0 19.8 17.0 25.9 46 0.0 0 --- S 21 30 --- ---
Berlin-Tempelhof 48 1009.9 20.8 16.8 26.0 43 0.0 0 0 S 10 30 --- ---
Lindenberg 91 1010.2 19.3 16.0 25.2 44 0.0 0 0 S 8 24 --- ---
Düsseldorf-Flh. 45 1006.9 18.7 13.8 19.9 71 0.0 0 --- NO 4 15 Regen ---
Essen 150 1007.0 18.5 13.3 19.6 67 0.0 0 0 NO 8 19 Regen ---
Kahler Asten 839 ------ 12.8 9.4 14.2 64 0.0 0 0 O 26 52 --- Windböen
Bad Lippspringe 157 1007.2 18.8 15.4 22.4 52 0.0 0 0 O 15 35 --- ---
Brocken 1142 ------ 8.9 8.4 12.4 73 0.0 0 0 O 50 70 --- Sturmböen
Leipzig-Flh. 142 1009.0 16.2 16.1 22.2 63 0.0 0 0 O 21 33 --- ---
Dresden-Flh. 227 1010.2 14.0 14.0 21.9 72 0.0 0 0 SO 24 39 leichter Regen ---
Cottbus 69 1010.7 18.2 15.6 24.9 45 0.0 0 0 SO 17 41 --- ---
Görlitz 238 1010.8 14.5 13.6 21.0 69 0.0 0 0 SO 14 32 --- ---
Aachen 231 1007.3 15.0 12.9 15.1 98 0.0 29 0 N 10 19 Regen ---
Nürburg 485 1007.4 12.5 --- --- 99 0.0 --- 0 W 3 5 Dunst oder flacher Nebel ---
Köln/Bonn-Flh. 92 1006.9 17.0 12.8 18.5 85 0.0 0 --- S 5 9 --- ---
Gießen/Wettenberg 203 1005.8 16.5 14.0 17.5 67 0.0 0 0 NO 17 26 --- ---
Wasserkuppe 921 ------ 9.4 9.1 10.7 99 0.4 3 0 SO 26 39 Nebel ---
Meiningen 450 1007.4 11.9 11.8 15.2 94 0.2 1 0 O 6 16 Regen ---
Erfurt 316 1007.4 15.2 13.2 18.1 69 0.0 0 --- O 14 28   ---
Gera 311 1008.5 13.1 13.1 18.9 80 0.0 0 0 O 24 36 Regen ---
Fichtelberg 1213 ------ 6.7 5.7 6.7 100 1.0 28 0 SO 21 36 Regen ---
Trier 265 1007.7 12.7 12.1 13.2 93 1.0 38 0 W 17 38 leichter Regen ---
Hahn-Flh. 497 1006.9 12.4 11.5 13.2 97 0.0 15 --- N 4 14 --- ---
Frankfurt/M-Flh. 112 1006.2 14.6 14.6 16.9 88 0.2 0 0 NO 9 31 Regen ---
OF-Wetterpark 119 1006.0 14.2 13.6 16.9 93 2.1 4 --- NO 6 26 Regen ---
Würzburg 268 1007.3 12.3 12.3 15.5 90 0.0 1 0 S 12 25 leichter Regen ---
Bamberg 239 1008.0 11.9 11.9 15.1 95 0.0 4 0 SO 10 18 Regen ---
Hof 567 1008.3 11.5 11.1 13.8 90 0.0 3 0 SO 6 17 Regen ---
Weiden 438 1009.5 11.1 11.1 12.9 92 0.1 5 0 S 8 20 Regen ---
Saarbrücken-Flh. 320 1009.2 10.8 10.5 11.7 95 3.2 73 --- W 26 44 leichter Regen ---
Karlsruhe-Rheinst. 116 1008.8 12.1 11.6 12.3 94 1.8 47 0 SW 28 49 leichter Regen ---
Mannheim 96 1006.4 13.1 13.1 16.6 95 2.9 24 0 SW 20 35 Regen ---
Stuttgart-Flh. 371 1008.8 10.8 10.8 11.8 91 1.4 7 0 SW 12 29 leichter Regen ---
Öhringen 276 1007.7 11.1 11.0 13.2 95 2.7 9 0 SW 16 33 Regen ---
Nürnberg-Flh. 314 1008.5 11.0 11.0 13.4 94 0.0 2 0 S 13 24 Regen ---
Regensburg 366 1010.3 11.6 11.0 14.3 88 0.5 1 0 S 6 20 leichter Regen ---
Straubing 351 1010.6 13.3 11.0 14.5 79 0.0 2 0 SW 9 20 Regen ---
Großer Arber 1436 ------ 4.4 4.1 6.1 99 0.1 12 0 SW 37 71 Nebel Sturmböen
Lahr 155 1010.4 14.0 11.6 14.2 86 0.0 22 0 SW 5 9 leichter Regen ---
Freudenstadt 797 ------ 8.3 7.2 8.3 93 0.6 26 0 W 32 54 Regen Windböen
Stötten 734 1009.6 8.8 8.3 9.2 89 0.4 8 0 W 36 56 leichter Regen Windböen
Augsburg 462 1010.0 12.1 10.0 13.6 82 0.0 2 0 SW 15 25 Regen ---
München-Flh. 444 1010.3 13.8 10.9 14.6 71 0.0 0 0 W 14 33 --- ---
Fürstenzell 476 1010.9 13.4 9.8 16.5 81 0.0 3 0 NO 7 12 --- ---
Feldberg/Schw. 1486 ------ 4.5 2.3 4.8 96 0.0 10 0 W 32 47 Nebel ---
Konstanz 443 1009.7 15.3 10.2 16.8 60 0.0 3 0 W 12 21 --- ---
Kempten 705 1010.0 12.9 8.0 15.1 70 0.0 2 0 SW 6 19 --- ---
Oberstdorf 806 ------ 10.5 8.1 15.0 85 3.5 4 0 S 12 26 Regen ---
Zugspitze 2960 ------ -3.0 -4.9 -1.5 97 ---- --- --- W 27 43 gefrierender Nebel ---
Hohenpeißenberg 977 ------ 10.9 5.5 12.4 76 0.0 0 0 W 9 24 --- ---

 

 Wetterzustand

  • Windrichtung und -geschwindigkeit
  • Luftdruck
  • relative Luftfeuchtigkeit
  • Sichtweite
  • Gesamtbedeckungsgrad
  • Niederschlag
  • Sonnenscheindauer

 Höhe:     m über NN
Luftd.:   auf Meereshöhe reduzierter Luftdruck in hPa
TEMP.:   Lufttemperatur in Grad Celsius
T-MIN:   Minimumtemperatur der Luft in 2m Höhe in Grad Celsius, von 18 UTC Vortag bis 06 UTC heute
T-MAX:  Maximumtemperatur der Luft in 2m Höhe in Grad Celsius, von 18 UTC Vortag bis 06 UTC heute
RR1:     Niederschlagsmenge, einstündig, mm ist gleich Liter pro
RR12:   Niederschlagsmenge, 12 stündig, 18 UTC Vortag bis 06 UTC heute in mm ist gleich Liter pro
SSS:     Gesamtschneehöhe
DD:      Windrichtung
FF:       Windgeschwindigkeit letztes 10-Minutenmittel in km/h
FX:       höchste Windspitze während der letzten Stunde in km/h
---:      Wert nicht vorhanden

 

2009-2024

Unwetterwarnungen

Unwetterwarnungen

  Überblick über die aktuelle Warnlage in Deutschland

  Radarbild           

aktueller Radarfilm Deutschland

Mecklenburg Vorpommern/

Brandenburg

aktuelles Wetter und aktuelle Temperatur Region Nordost

Waldbrandgefahr   

Deutschlandkarte mit dem Tageswert des Waldbrand-Gefahrenindex WBI, heute